Language: 


Des rapports , des résumés tant et plus, au choix de chacun....


Données Historiques de Météogheer
Journalier Rapport pour Février 09, 2018 Unitée:  Les deux    Impériale   Métrique
Suivant Jour »
Journalier Hebdomadaire Mensuel Annuel Sur mesure
  Max: Min: Moyenne:
Température: 37 °F /  2.8 °C 32 °F /  0.0 °C 33.8 °F /  1 °C
Point de rosée: 37.4 °F /  3.0 °C 26.6 °F /  -3.0 °C 32.4 °F /  0.2 °C
Humidité: 98% 77% 92%
Vent: 13.4mph /  21.6km/h - 6mph /  9.6km/h
Rafales: 17.2mph /  27.7km/h - -
Vent- - SSW
Pression: 30 in /  1015.1 hPa 29.8 in /  1008.0 hPa -
Pluie: 0.2 in /  5.1 mm    
Historical Graphs
 
 
Données tabulaires pour Février 09, 2018
Heure Température Point de rosée Pression Vent Vent Rafales Humidité Pluie Taux (Horaire) Conditions
00:02 33.3 °F /  0.7 °C 30.2 °F /  -1.0 °C 30in /  1015.1hPa SSW 5.4mph /  8.7km/h 5.4mph /  8.7km/h 88% 0in /  0.0mm
00:07 33.3 °F /  0.7 °C 30.2 °F /  -1.0 °C 30in /  1015.1hPa SSW 5.4mph /  8.7km/h 5.4mph /  8.7km/h 88% 0in /  0.0mm
00:12 33.1 °F /  0.6 °C 30.2 °F /  -1.0 °C 30in /  1015.1hPa SSW 5.4mph /  8.7km/h 5.4mph /  8.7km/h 88% 0in /  0.0mm
00:17 33.1 °F /  0.6 °C 30.2 °F /  -1.0 °C 30in /  1015.1hPa SSW 7.2mph /  11.6km/h 7.2mph /  11.6km/h 88% 0in /  0.0mm
00:22 33.1 °F /  0.6 °C 30.2 °F /  -1.0 °C 30in /  1015.1hPa SSW 5.6mph /  9.0km/h 7.2mph /  11.6km/h 88% 0in /  0.0mm
00:27 32.9 °F /  0.5 °C 30.2 °F /  -1.0 °C 30in /  1015.1hPa South 8.9mph /  14.3km/h 8.9mph /  14.3km/h 88% 0in /  0.0mm
00:32 32.9 °F /  0.5 °C 30.2 °F /  -1.0 °C 30in /  1015.1hPa South 8.9mph /  14.3km/h 8.9mph /  14.3km/h 88% 0in /  0.0mm
00:37 32.9 °F /  0.5 °C 30.2 °F /  -1.0 °C 30in /  1015.1hPa SSW 6.3mph /  10.1km/h 8.9mph /  14.3km/h 88% 0in /  0.0mm
00:42 32.9 °F /  0.5 °C 30.2 °F /  -1.0 °C 30in /  1015.1hPa SSW 6.3mph /  10.1km/h 8.9mph /  14.3km/h 88% 0in /  0.0mm
00:47 32.9 °F /  0.5 °C 30.2 °F /  -1.0 °C 30in /  1015.1hPa SSW 7.8mph /  12.6km/h 7.8mph /  12.6km/h 88% 0in /  0.0mm
00:52 32.9 °F /  0.5 °C 30.2 °F /  -1.0 °C 30in /  1015.1hPa SSW 7.8mph /  12.6km/h 7.8mph /  12.6km/h 88% 0in /  0.0mm
00:57 32.9 °F /  0.5 °C 30.2 °F /  -1.0 °C 30in /  1015.1hPa SSW 6mph /  9.7km/h 7.8mph /  12.6km/h 88% 0in /  0.0mm
01:02 32.7 °F /  0.4 °C 30.2 °F /  -1.0 °C 30in /  1015.1hPa SSW 6mph /  9.7km/h 7.8mph /  12.6km/h 88% 0in /  0.0mm
01:07 32.7 °F /  0.4 °C 30.2 °F /  -1.0 °C 30in /  1015.1hPa SSW 6mph /  9.7km/h 6mph /  9.7km/h 89% 0in /  0.0mm
01:12 32.9 °F /  0.5 °C 30.2 °F /  -1.0 °C 30in /  1015.1hPa SSW 6mph /  9.7km/h 6mph /  9.7km/h 89% 0in /  0.0mm
01:18 32.9 °F /  0.5 °C 30.2 °F /  -1.0 °C 30in /  1015.1hPa SSW 6mph /  9.7km/h 6mph /  9.7km/h 89% 0in /  0.0mm
01:23 32.9 °F /  0.5 °C 30.2 °F /  -1.0 °C 30in /  1015.1hPa SSW 6mph /  9.7km/h 6mph /  9.7km/h 89% 0in /  0.0mm
01:28 32.9 °F /  0.5 °C 30.2 °F /  -1.0 °C 30in /  1015.1hPa SSW 6mph /  9.7km/h 6mph /  9.7km/h 89% 0in /  0.0mm
01:33 32.9 °F /  0.5 °C 30.2 °F /  -1.0 °C 30in /  1015.1hPa SSW 6mph /  9.7km/h 6mph /  9.7km/h 89% 0in /  0.0mm
01:38 32.7 °F /  0.4 °C 30.2 °F /  -1.0 °C 30in /  1015.1hPa SSW 6mph /  9.7km/h 6mph /  9.7km/h 89% 0in /  0.0mm
01:43 32.7 °F /  0.4 °C 30.2 °F /  -1.0 °C 30in /  1015.1hPa SSW 6mph /  9.7km/h 6mph /  9.7km/h 89% 0in /  0.0mm
01:48 32.7 °F /  0.4 °C 30.2 °F /  -1.0 °C 30in /  1015.1hPa SSW 6mph /  9.7km/h 6mph /  9.7km/h 88% 0in /  0.0mm
01:53 32.7 °F /  0.4 °C 30.2 °F /  -1.0 °C 30in /  1015.1hPa SSW 6.5mph /  10.5km/h 6.5mph /  10.5km/h 88% 0in /  0.0mm
01:58 32.7 °F /  0.4 °C 30.2 °F /  -1.0 °C 30in /  1015.1hPa SSW 6.5mph /  10.5km/h 6.5mph /  10.5km/h 88% 0in /  0.0mm
02:03 32.7 °F /  0.4 °C 30.2 °F /  -1.0 °C 29.9in /  1014.1hPa SSW 6.5mph /  10.5km/h 6.5mph /  10.5km/h 88% 0in /  0.0mm
02:08 32.7 °F /  0.4 °C 30.2 °F /  -1.0 °C 29.9in /  1014.1hPa SSW 6.5mph /  10.5km/h 6.5mph /  10.5km/h 88% 0in /  0.0mm
02:13 32.7 °F /  0.4 °C 30.2 °F /  -1.0 °C 29.9in /  1014.1hPa SSW 6.5mph /  10.5km/h 6.5mph /  10.5km/h 88% 0in /  0.0mm
02:18 32.7 °F /  0.4 °C 30.2 °F /  -1.0 °C 29.9in /  1014.1hPa SSW 6.5mph /  10.5km/h 6.5mph /  10.5km/h 88% 0in /  0.0mm
02:23 32.7 °F /  0.4 °C 30.2 °F /  -1.0 °C 29.9in /  1014.1hPa SSW 6.5mph /  10.5km/h 6.5mph /  10.5km/h 88% 0in /  0.0mm
02:28 32.7 °F /  0.4 °C 30.2 °F /  -1.0 °C 29.9in /  1014.1hPa SSW 6.5mph /  10.5km/h 6.5mph /  10.5km/h 88% 0in /  0.0mm
02:33 32.7 °F /  0.4 °C 30.2 °F /  -1.0 °C 29.9in /  1014.1hPa SSW 6.5mph /  10.5km/h 6.5mph /  10.5km/h 88% 0in /  0.0mm
02:38 32.7 °F /  0.4 °C 30.2 °F /  -1.0 °C 29.9in /  1014.1hPa South 3.8mph /  6.1km/h 3.8mph /  6.1km/h 88% 0in /  0.0mm
02:43 32.7 °F /  0.4 °C 30.2 °F /  -1.0 °C 29.9in /  1014.1hPa South 3.8mph /  6.1km/h 3.8mph /  6.1km/h 88% 0in /  0.0mm
02:48 32.9 °F /  0.5 °C 30.2 °F /  -1.0 °C 29.9in /  1014.1hPa South 3.8mph /  6.1km/h 3.8mph /  6.1km/h 87% 0in /  0.0mm
02:53 32.9 °F /  0.5 °C 30.2 °F /  -1.0 °C 29.9in /  1014.1hPa SSW 8.1mph /  13.0km/h 8.1mph /  13.0km/h 87% 0in /  0.0mm
02:59 32.9 °F /  0.5 °C 30.2 °F /  -1.0 °C 29.9in /  1014.1hPa SSW 5.4mph /  8.7km/h 8.1mph /  13.0km/h 87% 0in /  0.0mm
03:04 32.9 °F /  0.5 °C 30.2 °F /  -1.0 °C 29.9in /  1014.1hPa South 7.6mph /  12.2km/h 8.1mph /  13.0km/h 86% 0in /  0.0mm
03:09 32.7 °F /  0.4 °C 30.2 °F /  -1.0 °C 29.9in /  1014.1hPa South 7.6mph /  12.2km/h 8.1mph /  13.0km/h 86% 0in /  0.0mm
03:14 32.7 °F /  0.4 °C 30.2 °F /  -1.0 °C 29.9in /  1013.1hPa South 4.9mph /  7.9km/h 10.7mph /  17.2km/h 86% 0in /  0.0mm
03:19 32.7 °F /  0.4 °C 30.2 °F /  -1.0 °C 29.9in /  1013.1hPa South 10.3mph /  16.6km/h 10.7mph /  17.2km/h 86% 0in /  0.0mm
03:24 32.7 °F /  0.4 °C 30.2 °F /  -1.0 °C 29.9in /  1013.1hPa Calm   10.3mph /  16.6km/h 85% 0in /  0.0mm
03:29 32.7 °F /  0.4 °C 30.2 °F /  -1.0 °C 29.9in /  1013.1hPa SSW 9.8mph /  15.8km/h 10.3mph /  16.6km/h 85% 0in /  0.0mm
03:34 32.7 °F /  0.4 °C 30.2 °F /  -1.0 °C 29.9in /  1013.1hPa SSW 7.4mph /  11.9km/h 10.1mph /  16.3km/h 85% 0in /  0.0mm
03:39 32.7 °F /  0.4 °C 30.2 °F /  -1.0 °C 29.9in /  1013.1hPa SSW 7.4mph /  11.9km/h 9.8mph /  15.8km/h 85% 0in /  0.0mm
03:44 32.7 °F /  0.4 °C 30.2 °F /  -1.0 °C 29.9in /  1013.1hPa South 7.8mph /  12.6km/h 10.7mph /  17.2km/h 85% 0in /  0.0mm
03:49 32.7 °F /  0.4 °C 30.2 °F /  -1.0 °C 29.9in /  1013.1hPa SSE 5.4mph /  8.7km/h 11.4mph /  18.3km/h 86% 0in /  0.0mm
03:54 32.5 °F /  0.3 °C 30.2 °F /  -1.0 °C 29.9in /  1013.1hPa SSW 6.5mph /  10.5km/h 11.4mph /  18.3km/h 86% 0in /  0.0mm
03:59 32.5 °F /  0.3 °C 30.2 °F /  -1.0 °C 29.9in /  1013.1hPa SSE 6.3mph /  10.1km/h 10.1mph /  16.3km/h 86% 0in /  0.0mm
04:04 32.5 °F /  0.3 °C 30.2 °F /  -1.0 °C 29.9in /  1013.1hPa SSE 11.9mph /  19.1km/h 11.9mph /  19.1km/h 86% 0in /  0.0mm
04:09 32.5 °F /  0.3 °C 30.2 °F /  -1.0 °C 29.9in /  1013.1hPa South 10.3mph /  16.6km/h 11.9mph /  19.1km/h 86% 0in /  0.0mm
04:14 32.5 °F /  0.3 °C 30.2 °F /  -1.0 °C 29.9in /  1013.1hPa South 6.5mph /  10.5km/h 11.9mph /  19.1km/h 86% 0in /  0.0mm
04:19 32.5 °F /  0.3 °C 30.2 °F /  -1.0 °C 29.9in /  1013.1hPa SSW 9.6mph /  15.4km/h 9.6mph /  15.4km/h 86% 0in /  0.0mm
04:24 32.5 °F /  0.3 °C 30.2 °F /  -1.0 °C 29.9in /  1013.1hPa SSW 7.6mph /  12.2km/h 9.6mph /  15.4km/h 87% 0in /  0.0mm
04:29 32.5 °F /  0.3 °C 30.2 °F /  -1.0 °C 29.9in /  1013.1hPa South 7.2mph /  11.6km/h 10.1mph /  16.3km/h 87% 0in /  0.0mm
04:34 32.5 °F /  0.3 °C 30.2 °F /  -1.0 °C 29.9in /  1013.1hPa SSE 8.1mph /  13.0km/h 12.8mph /  20.6km/h 87% 0in /  0.0mm
04:39 32.5 °F /  0.3 °C 30.2 °F /  -1.0 °C 29.9in /  1013.1hPa SSW 7.4mph /  11.9km/h 12.8mph /  20.6km/h 86% 0in /  0.0mm
04:45 32.4 °F /  0.2 °C 28.4 °F /  -2.0 °C 29.9in /  1012.1hPa South 8.7mph /  14.0km/h 10.1mph /  16.3km/h 86% 0in /  0.0mm
04:50 32.4 °F /  0.2 °C 28.4 °F /  -2.0 °C 29.9in /  1012.1hPa South 7.8mph /  12.6km/h 10.1mph /  16.3km/h 86% 0in /  0.0mm
04:55 32.4 °F /  0.2 °C 28.4 °F /  -2.0 °C 29.9in /  1012.1hPa SSW 5.6mph /  9.0km/h 10.5mph /  16.9km/h 86% 0in /  0.0mm
05:00 32.4 °F /  0.2 °C 28.4 °F /  -2.0 °C 29.9in /  1012.1hPa SSE 8.7mph /  14.0km/h 10.5mph /  16.9km/h 86% 0in /  0.0mm
05:05 32.4 °F /  0.2 °C 28.4 °F /  -2.0 °C 29.9in /  1012.1hPa SSW 6.5mph /  10.5km/h 8.7mph /  14.0km/h 86% 0in /  0.0mm
05:10 32.4 °F /  0.2 °C 28.4 °F /  -2.0 °C 29.9in /  1012.1hPa SSE 10.1mph /  16.3km/h 10.3mph /  16.6km/h 86% 0in /  0.0mm
05:15 32.4 °F /  0.2 °C 28.4 °F /  -2.0 °C 29.9in /  1011.1hPa SSW 6.5mph /  10.5km/h 11.9mph /  19.1km/h 86% 0in /  0.0mm
05:20 32.4 °F /  0.2 °C 28.4 °F /  -2.0 °C 29.9in /  1011.1hPa South 7.6mph /  12.2km/h 11.9mph /  19.1km/h 86% 0in /  0.0mm
05:25 32.4 °F /  0.2 °C 28.4 °F /  -2.0 °C 29.9in /  1011.1hPa South 10.7mph /  17.2km/h 10.7mph /  17.2km/h 85% 0in /  0.0mm
05:30 32.4 °F /  0.2 °C 28.4 °F /  -2.0 °C 29.8in /  1010.0hPa South 6.7mph /  10.8km/h 10.7mph /  17.2km/h 85% 0in /  0.0mm
05:35 32.4 °F /  0.2 °C 28.4 °F /  -2.0 °C 29.8in /  1010.0hPa SSW 8.1mph /  13.0km/h 10.7mph /  17.2km/h 84% 0in /  0.0mm
05:40 32.2 °F /  0.1 °C 28.4 °F /  -2.0 °C 29.8in /  1010.0hPa South 8.1mph /  13.0km/h 8.1mph /  13.0km/h 84% 0in /  0.0mm
05:45 32.2 °F /  0.1 °C 28.4 °F /  -2.0 °C 29.9in /  1011.1hPa SSW 11.4mph /  18.3km/h 11.4mph /  18.3km/h 84% 0in /  0.0mm
05:50 32.2 °F /  0.1 °C 28.4 °F /  -2.0 °C 29.9in /  1011.1hPa South 7.4mph /  11.9km/h 11.4mph /  18.3km/h 83% 0in /  0.0mm
05:55 32.2 °F /  0.1 °C 28.4 °F /  -2.0 °C 29.9in /  1011.1hPa South 9.8mph /  15.8km/h 11.4mph /  18.3km/h 83% 0in /  0.0mm
06:00 32.2 °F /  0.1 °C 28.4 °F /  -2.0 °C 29.9in /  1011.1hPa SSW 7.8mph /  12.6km/h 10.7mph /  17.2km/h 83% 0in /  0.0mm
06:05 32.2 °F /  0.1 °C 28.4 °F /  -2.0 °C 29.9in /  1011.1hPa SSW 7.8mph /  12.6km/h 10.7mph /  17.2km/h 83% 0in /  0.0mm
06:10 32.2 °F /  0.1 °C 28.4 °F /  -2.0 °C 29.9in /  1011.1hPa SSW 6.9mph /  11.1km/h 12.1mph /  19.5km/h 83% 0in /  0.0mm
06:15 32.2 °F /  0.1 °C 28.4 °F /  -2.0 °C 29.9in /  1011.1hPa South 6.5mph /  10.5km/h 13.4mph /  21.6km/h 83% 0in /  0.0mm
06:20 32.2 °F /  0.1 °C 28.4 °F /  -2.0 °C 29.9in /  1011.1hPa SSE 7.4mph /  11.9km/h 13.4mph /  21.6km/h 83% 0in /  0.0mm
06:25 32.2 °F /  0.1 °C 28.4 °F /  -2.0 °C 29.9in /  1011.1hPa SSE 7.6mph /  12.2km/h 12.5mph /  20.1km/h 82% 0in /  0.0mm
06:30 32.2 °F /  0.1 °C 28.4 °F /  -2.0 °C 29.9in /  1011.1hPa SSE 6.3mph /  10.1km/h 12.3mph /  19.8km/h 82% 0in /  0.0mm
06:35 32 °F /  0.0 °C 26.6 °F /  -3.0 °C 29.9in /  1011.1hPa South 8.7mph /  14.0km/h 12.3mph /  19.8km/h 82% 0in /  0.0mm
06:40 32 °F /  0.0 °C 26.6 °F /  -3.0 °C 29.9in /  1011.1hPa South 7.2mph /  11.6km/h 12.3mph /  19.8km/h 82% 0in /  0.0mm
06:45 32 °F /  0.0 °C 26.6 °F /  -3.0 °C 29.9in /  1011.1hPa South 8.1mph /  13.0km/h 11.9mph /  19.1km/h 82% 0in /  0.0mm
06:50 32 °F /  0.0 °C 26.6 °F /  -3.0 °C 29.9in /  1011.1hPa SSW 5.4mph /  8.7km/h 11.9mph /  19.1km/h 82% 0in /  0.0mm
06:55 32 °F /  0.0 °C 26.6 °F /  -3.0 °C 29.9in /  1011.1hPa SSW 7.8mph /  12.6km/h 11.9mph /  19.1km/h 82% 0in /  0.0mm
07:00 32.2 °F /  0.1 °C 28.4 °F /  -2.0 °C 29.8in /  1010.0hPa SSE 7.2mph /  11.6km/h 8.1mph /  13.0km/h 82% 0in /  0.0mm
07:05 32.2 °F /  0.1 °C 28.4 °F /  -2.0 °C 29.8in /  1010.0hPa SSE 6mph /  9.7km/h 12.3mph /  19.8km/h 82% 0in /  0.0mm
07:10 32.4 °F /  0.2 °C 26.6 °F /  -3.0 °C 29.8in /  1010.0hPa South 12.8mph /  20.6km/h 12.8mph /  20.6km/h 81% 0in /  0.0mm
07:15 32.4 °F /  0.2 °C 26.6 °F /  -3.0 °C 29.8in /  1010.0hPa South 10.1mph /  16.3km/h 12.8mph /  20.6km/h 80% 0in /  0.0mm
07:20 32.4 °F /  0.2 °C 26.6 °F /  -3.0 °C 29.8in /  1010.0hPa South 6.3mph /  10.1km/h 12.8mph /  20.6km/h 80% 0in /  0.0mm
07:25 32.4 °F /  0.2 °C 26.6 °F /  -3.0 °C 29.8in /  1010.0hPa SSW 13.4mph /  21.6km/h 13.4mph /  21.6km/h 80% 0in /  0.0mm
07:30 32.5 °F /  0.3 °C 26.6 °F /  -3.0 °C 29.8in /  1009.0hPa South 8.7mph /  14.0km/h 13.4mph /  21.6km/h 79% 0in /  0.0mm
07:35 32.5 °F /  0.3 °C 26.6 °F /  -3.0 °C 29.8in /  1009.0hPa South 8.7mph /  14.0km/h 13.4mph /  21.6km/h 79% 0in /  0.0mm
07:40 32.5 °F /  0.3 °C 26.6 °F /  -3.0 °C 29.8in /  1009.0hPa South 8.1mph /  13.0km/h 12.8mph /  20.6km/h 79% 0in /  0.0mm
07:45 32.5 °F /  0.3 °C 26.6 °F /  -3.0 °C 29.8in /  1010.0hPa SSW 5.8mph /  9.3km/h 12.8mph /  20.6km/h 79% 0in /  0.0mm
07:50 32.5 °F /  0.3 °C 26.6 °F /  -3.0 °C 29.8in /  1010.0hPa SSE 5.8mph /  9.3km/h 10.3mph /  16.6km/h 78% 0in /  0.0mm
07:55 32.5 °F /  0.3 °C 26.6 °F /  -3.0 °C 29.8in /  1010.0hPa SW 12.5mph /  20.1km/h 12.5mph /  20.1km/h 78% 0in /  0.0mm
08:00 32.5 °F /  0.3 °C 26.6 °F /  -3.0 °C 29.8in /  1010.0hPa SSE 8.5mph /  13.7km/h 12.5mph /  20.1km/h 78% 0in /  0.0mm
08:05 32.5 °F /  0.3 °C 26.6 °F /  -3.0 °C 29.8in /  1010.0hPa SSE 8.5mph /  13.7km/h 12.5mph /  20.1km/h 78% 0in /  0.0mm
08:10 32.7 °F /  0.4 °C 26.6 °F /  -3.0 °C 29.8in /  1010.0hPa SSE 8.5mph /  13.7km/h 8.5mph /  13.7km/h 78% 0in /  0.0mm
08:15 32.7 °F /  0.4 °C 26.6 °F /  -3.0 °C 29.8in /  1010.0hPa SSW 13mph /  20.9km/h 13mph /  20.9km/h 78% 0in /  0.0mm
08:20 32.7 °F /  0.4 °C 26.6 °F /  -3.0 °C 29.8in /  1010.0hPa SSW 13mph /  20.9km/h 13mph /  20.9km/h 78% 0in /  0.0mm
08:25 32.7 °F /  0.4 °C 26.6 °F /  -3.0 °C 29.8in /  1010.0hPa SSW 11.9mph /  19.1km/h 14.5mph /  23.3km/h 78% 0in /  0.0mm
08:30 32.7 °F /  0.4 °C 26.6 °F /  -3.0 °C 29.8in /  1010.0hPa South 10.7mph /  17.2km/h 17.2mph /  27.7km/h 77% 0in /  0.0mm
08:35 32.5 °F /  0.3 °C 26.6 °F /  -3.0 °C 29.8in /  1010.0hPa SSW 6mph /  9.7km/h 17.2mph /  27.7km/h 77% 0in /  0.0mm
08:41 32.7 °F /  0.4 °C 26.6 °F /  -3.0 °C 29.8in /  1010.0hPa SSW 10.1mph /  16.3km/h 11mph /  17.7km/h 78% 0in /  0.0mm
08:46 32.7 °F /  0.4 °C 26.6 °F /  -3.0 °C 29.8in /  1010.0hPa SSW 6.5mph /  10.5km/h 11mph /  17.7km/h 77% 0in /  0.0mm
08:51 32.7 °F /  0.4 °C 26.6 °F /  -3.0 °C 29.8in /  1010.0hPa SSW 6.5mph /  10.5km/h 10.1mph /  16.3km/h 78% 0in /  0.0mm
08:56 32.7 °F /  0.4 °C 26.6 °F /  -3.0 °C 29.8in /  1010.0hPa SSW 6.5mph /  10.5km/h 6.5mph /  10.5km/h 78% 0in /  0.0mm
09:01 32.9 °F /  0.5 °C 26.6 °F /  -3.0 °C 29.8in /  1010.0hPa SSW 6.5mph /  10.5km/h 6.5mph /  10.5km/h 78% 0in /  0.0mm
09:06 32.9 °F /  0.5 °C 26.6 °F /  -3.0 °C 29.8in /  1010.0hPa SSW 10.5mph /  16.9km/h 10.5mph /  16.9km/h 78% 0in /  0.0mm
09:11 32.7 °F /  0.4 °C 26.6 °F /  -3.0 °C 29.8in /  1010.0hPa SSW 7.8mph /  12.6km/h 12.5mph /  20.1km/h 78% 0in /  0.0mm
09:16 32.7 °F /  0.4 °C 26.6 °F /  -3.0 °C 29.8in /  1010.0hPa SSW 7.8mph /  12.6km/h 12.5mph /  20.1km/h 79% 0in /  0.0mm
09:21 32.5 °F /  0.3 °C 28.4 °F /  -2.0 °C 29.8in /  1010.0hPa SSW 7.8mph /  12.6km/h 7.8mph /  12.6km/h 80% 0in /  0.0mm
09:26 32.4 °F /  0.2 °C 28.4 °F /  -2.0 °C 29.8in /  1010.0hPa SSW 7.6mph /  12.2km/h 7.8mph /  12.6km/h 82% 0in /  0.0mm
09:31 32.2 °F /  0.1 °C 28.4 °F /  -2.0 °C 29.8in /  1010.0hPa SSW 7.6mph /  12.2km/h 7.8mph /  12.6km/h 84% 0in /  0.0mm
09:36 32.2 °F /  0.1 °C 28.4 °F /  -2.0 °C 29.8in /  1010.0hPa SSE 6.5mph /  10.5km/h 7.6mph /  12.2km/h 86% 0in /  0.0mm
09:41 32.2 °F /  0.1 °C 30.2 °F /  -1.0 °C 29.8in /  1010.0hPa SSE 6.5mph /  10.5km/h 7.6mph /  12.2km/h 87% 0in /  0.0mm
09:46 32.2 °F /  0.1 °C 30.2 °F /  -1.0 °C 29.8in /  1010.0hPa SSE 6.5mph /  10.5km/h 6.5mph /  10.5km/h 88% 0in /  0.0mm
09:51 32.4 °F /  0.2 °C 30.2 °F /  -1.0 °C 29.8in /  1010.0hPa SSE 6.5mph /  10.5km/h 6.5mph /  10.5km/h 89% 0in /  0.0mm
09:56 32.4 °F /  0.2 °C 30.2 °F /  -1.0 °C 29.8in /  1010.0hPa SSE 6.5mph /  10.5km/h 6.5mph /  10.5km/h 88% 0in /  0.0mm
10:01 32.5 °F /  0.3 °C 30.2 °F /  -1.0 °C 29.8in /  1009.0hPa SSE 6.5mph /  10.5km/h 6.5mph /  10.5km/h 89% 0in /  0.0mm
10:06 32.5 °F /  0.3 °C 30.2 °F /  -1.0 °C 29.8in /  1009.0hPa SSE 6.5mph /  10.5km/h 6.5mph /  10.5km/h 89% 0in /  0.0mm
10:11 32.5 °F /  0.3 °C 30.2 °F /  -1.0 °C 29.8in /  1009.0hPa SSE 6.5mph /  10.5km/h 6.5mph /  10.5km/h 89% 0in /  0.0mm
10:17 32.4 °F /  0.2 °C 30.2 °F /  -1.0 °C 29.8in /  1009.0hPa SSE 6.5mph /  10.5km/h 6.5mph /  10.5km/h 90% 0in /  0.0mm
10:22 32.4 °F /  0.2 °C 30.2 °F /  -1.0 °C 29.8in /  1009.0hPa SSE 6.5mph /  10.5km/h 6.5mph /  10.5km/h 91% 0in /  0.0mm
10:27 32.4 °F /  0.2 °C 30.2 °F /  -1.0 °C 29.8in /  1009.0hPa SSE 6.5mph /  10.5km/h 6.5mph /  10.5km/h 91% 0in /  0.0mm
10:32 32.4 °F /  0.2 °C 30.2 °F /  -1.0 °C 29.8in /  1010.0hPa SSE 6.5mph /  10.5km/h 6.5mph /  10.5km/h 92% 0in /  0.0mm
10:37 32.4 °F /  0.2 °C 30.2 °F /  -1.0 °C 29.8in /  1010.0hPa SSE 6.5mph /  10.5km/h 6.5mph /  10.5km/h 92% 0in /  0.0mm
10:42 32.4 °F /  0.2 °C 30.2 °F /  -1.0 °C 29.8in /  1010.0hPa SSE 6.5mph /  10.5km/h 6.5mph /  10.5km/h 92% 0in /  0.0mm
10:47 32.4 °F /  0.2 °C 30.2 °F /  -1.0 °C 29.8in /  1009.0hPa SSE 6.5mph /  10.5km/h 6.5mph /  10.5km/h 92% 0in /  0.0mm
10:52 32.5 °F /  0.3 °C 30.2 °F /  -1.0 °C 29.8in /  1009.0hPa SSE 6.5mph /  10.5km/h 6.5mph /  10.5km/h 92% 0in /  0.0mm
10:57 32.5 °F /  0.3 °C 30.2 °F /  -1.0 °C 29.8in /  1009.0hPa SSE 6.5mph /  10.5km/h 6.5mph /  10.5km/h 92% 0in /  0.0mm
11:02 32.5 °F /  0.3 °C 32 °F /  0.0 °C 29.8in /  1009.0hPa SSE 6.5mph /  10.5km/h 6.5mph /  10.5km/h 93% 0in /  0.0mm
11:07 32.5 °F /  0.3 °C 32 °F /  0.0 °C 29.8in /  1009.0hPa SSE 6.5mph /  10.5km/h 6.5mph /  10.5km/h 93% 0in /  0.0mm
11:12 32.5 °F /  0.3 °C 32 °F /  0.0 °C 29.8in /  1009.0hPa SSE 6.5mph /  10.5km/h 6.5mph /  10.5km/h 94% 0in /  0.0mm
11:17 32.5 °F /  0.3 °C 32 °F /  0.0 °C 29.8in /  1009.0hPa SSE 6.5mph /  10.5km/h 6.5mph /  10.5km/h 94% 0in /  0.0mm
11:22 32.5 °F /  0.3 °C 32 °F /  0.0 °C 29.8in /  1009.0hPa SSE 6.5mph /  10.5km/h 6.5mph /  10.5km/h 95% 0in /  0.0mm
11:27 32.7 °F /  0.4 °C 32 °F /  0.0 °C 29.8in /  1009.0hPa SSE 6.5mph /  10.5km/h 6.5mph /  10.5km/h 96% 0in /  0.0mm
11:32 32.7 °F /  0.4 °C 32 °F /  0.0 °C 29.8in /  1009.0hPa SSE 6.5mph /  10.5km/h 6.5mph /  10.5km/h 96% 0in /  0.0mm
11:37 32.7 °F /  0.4 °C 32 °F /  0.0 °C 29.8in /  1009.0hPa SSE 6.5mph /  10.5km/h 6.5mph /  10.5km/h 96% 0in /  0.0mm
11:42 32.7 °F /  0.4 °C 32 °F /  0.0 °C 29.8in /  1009.0hPa SSE 6.5mph /  10.5km/h 6.5mph /  10.5km/h 96% 0in /  0.0mm
11:47 32.9 °F /  0.5 °C 33.8 °F /  1.0 °C 29.8in /  1009.0hPa SSE 6.5mph /  10.5km/h 6.5mph /  10.5km/h 96% 0in /  0.0mm
11:52 32.9 °F /  0.5 °C 33.8 °F /  1.0 °C 29.8in /  1009.0hPa SSE 6.5mph /  10.5km/h 6.5mph /  10.5km/h 97% 0in /  0.0mm
11:57 33.1 °F /  0.6 °C 33.8 °F /  1.0 °C 29.8in /  1009.0hPa SSE 6.5mph /  10.5km/h 6.5mph /  10.5km/h 97% 0in /  0.0mm
12:02 33.3 °F /  0.7 °C 33.8 °F /  1.0 °C 29.8in /  1009.0hPa SSE 6.5mph /  10.5km/h 6.5mph /  10.5km/h 97% 0in /  0.0mm
12:07 33.4 °F /  0.8 °C 33.8 °F /  1.0 °C 29.8in /  1009.0hPa SSE 6.5mph /  10.5km/h 6.5mph /  10.5km/h 97% 0in /  0.0mm
12:12 33.4 °F /  0.8 °C 33.8 °F /  1.0 °C 29.8in /  1009.0hPa SSE 6.5mph /  10.5km/h 6.5mph /  10.5km/h 97% 0in /  0.0mm
12:18 33.4 °F /  0.8 °C 33.8 °F /  1.0 °C 29.8in /  1009.0hPa SSE 6.5mph /  10.5km/h 6.5mph /  10.5km/h 96% 0in /  0.0mm
12:23 33.4 °F /  0.8 °C 33.8 °F /  1.0 °C 29.8in /  1009.0hPa SSE 6.5mph /  10.5km/h 6.5mph /  10.5km/h 96% 0in /  0.0mm
12:28 33.4 °F /  0.8 °C 33.8 °F /  1.0 °C 29.8in /  1009.0hPa SSE 6.5mph /  10.5km/h 6.5mph /  10.5km/h 96% 0in /  0.0mm
12:33 33.4 °F /  0.8 °C 33.8 °F /  1.0 °C 29.8in /  1009.0hPa SSE 6.5mph /  10.5km/h 6.5mph /  10.5km/h 96% 0in /  0.0mm
12:38 33.3 °F /  0.7 °C 32 °F /  0.0 °C 29.8in /  1009.0hPa SSE 6.5mph /  10.5km/h 6.5mph /  10.5km/h 95% 0in /  0.0mm
12:43 33.3 °F /  0.7 °C 32 °F /  0.0 °C 29.8in /  1009.0hPa SSE 6.5mph /  10.5km/h 6.5mph /  10.5km/h 95% 0in /  0.0mm
12:48 33.4 °F /  0.8 °C 33.8 °F /  1.0 °C 29.8in /  1010.0hPa SSE 6.5mph /  10.5km/h 6.5mph /  10.5km/h 96% 0in /  0.0mm
12:53 33.3 °F /  0.7 °C 33.8 °F /  1.0 °C 29.8in /  1010.0hPa SSE 6.5mph /  10.5km/h 6.5mph /  10.5km/h 96% 0in /  0.0mm
12:58 33.4 °F /  0.8 °C 33.8 °F /  1.0 °C 29.8in /  1010.0hPa SSE 6.5mph /  10.5km/h 6.5mph /  10.5km/h 96% 0in /  0.0mm
13:03 33.6 °F /  0.9 °C 33.8 °F /  1.0 °C 29.8in /  1009.0hPa SSE 6.5mph /  10.5km/h 6.5mph /  10.5km/h 96% 0in /  0.0mm
13:08 33.6 °F /  0.9 °C 33.8 °F /  1.0 °C 29.8in /  1009.0hPa SSE 6.5mph /  10.5km/h 6.5mph /  10.5km/h 96% 0in /  0.0mm
13:13 33.6 °F /  0.9 °C 33.8 °F /  1.0 °C 29.8in /  1009.0hPa SSE 6.5mph /  10.5km/h 6.5mph /  10.5km/h 96% 0in /  0.0mm
13:18 33.6 °F /  0.9 °C 33.8 °F /  1.0 °C 29.8in /  1009.0hPa SSE 6.5mph /  10.5km/h 6.5mph /  10.5km/h 97% 0in /  0.0mm
13:23 33.8 °F /  1.0 °C 33.8 °F /  1.0 °C 29.8in /  1009.0hPa SSE 6.5mph /  10.5km/h 6.5mph /  10.5km/h 96% 0in /  0.0mm
13:28 33.8 °F /  1.0 °C 33.8 °F /  1.0 °C 29.8in /  1008.0hPa SSE 6.5mph /  10.5km/h 6.5mph /  10.5km/h 97% 0in /  0.0mm
13:33 33.8 °F /  1.0 °C 33.8 °F /  1.0 °C 29.8in /  1008.0hPa SSE 6.5mph /  10.5km/h 6.5mph /  10.5km/h 97% 0in /  0.0mm
13:38 33.8 °F /  1.0 °C 33.8 °F /  1.0 °C 29.8in /  1008.0hPa SSE 6.5mph /  10.5km/h 6.5mph /  10.5km/h 97% 0in /  0.0mm
13:43 33.8 °F /  1.0 °C 33.8 °F /  1.0 °C 29.8in /  1008.0hPa SSE 6.5mph /  10.5km/h 6.5mph /  10.5km/h 97% 0in /  0.0mm
13:49 33.8 °F /  1.0 °C 33.8 °F /  1.0 °C 29.8in /  1008.0hPa SSE 6.5mph /  10.5km/h 6.5mph /  10.5km/h 97% 0in /  0.0mm
13:54 33.8 °F /  1.0 °C 33.8 °F /  1.0 °C 29.8in /  1008.0hPa SSE 6.5mph /  10.5km/h 6.5mph /  10.5km/h 97% 0in /  0.0mm
13:59 34 °F /  1.1 °C 33.8 °F /  1.0 °C 29.8in /  1008.0hPa SSE 6.5mph /  10.5km/h 6.5mph /  10.5km/h 97% 0in /  0.0mm
14:04 34 °F /  1.1 °C 33.8 °F /  1.0 °C 29.8in /  1008.0hPa SSE 6.5mph /  10.5km/h 6.5mph /  10.5km/h 97% 0in /  0.0mm
14:09 34 °F /  1.1 °C 33.8 °F /  1.0 °C 29.8in /  1008.0hPa SSE 6.5mph /  10.5km/h 6.5mph /  10.5km/h 97% 0in /  0.0mm
14:14 34 °F /  1.1 °C 33.8 °F /  1.0 °C 29.8in /  1008.0hPa SSE 6.5mph /  10.5km/h 6.5mph /  10.5km/h 97% 0in /  0.0mm
14:19 34.2 °F /  1.2 °C 33.8 °F /  1.0 °C 29.8in /  1008.0hPa SSE 6.5mph /  10.5km/h 6.5mph /  10.5km/h 97% 0in /  0.0mm
14:24 34.2 °F /  1.2 °C 33.8 °F /  1.0 °C 29.8in /  1008.0hPa SSE 6.5mph /  10.5km/h 6.5mph /  10.5km/h 98% 0in /  0.0mm
14:29 34.2 °F /  1.2 °C 33.8 °F /  1.0 °C 29.8in /  1008.0hPa SSE 6.5mph /  10.5km/h 6.5mph /  10.5km/h 98% 0in /  0.0mm
14:34 34.2 °F /  1.2 °C 33.8 °F /  1.0 °C 29.8in /  1008.0hPa SSE 6.5mph /  10.5km/h 6.5mph /  10.5km/h 98% 0in /  0.0mm
14:39 34.2 °F /  1.2 °C 33.8 °F /  1.0 °C 29.8in /  1008.0hPa SSE 6.5mph /  10.5km/h 6.5mph /  10.5km/h 98% 0in /  0.0mm
14:44 34.3 °F /  1.3 °C 33.8 °F /  1.0 °C 29.8in /  1008.0hPa SSE 6.5mph /  10.5km/h 6.5mph /  10.5km/h 98% 0in /  0.0mm
14:49 34.5 °F /  1.4 °C 33.8 °F /  1.0 °C 29.8in /  1008.0hPa SSE 6.5mph /  10.5km/h 6.5mph /  10.5km/h 98% 0in /  0.0mm
14:54 34.5 °F /  1.4 °C 33.8 °F /  1.0 °C 29.8in /  1008.0hPa SSE 6.5mph /  10.5km/h 6.5mph /  10.5km/h 98% 0in /  0.0mm
14:59 34.9 °F /  1.6 °C 35.6 °F /  2.0 °C 29.8in /  1008.0hPa SSE 6.5mph /  10.5km/h 6.5mph /  10.5km/h 98% 0in /  0.0mm
15:04 34.9 °F /  1.6 °C 35.6 °F /  2.0 °C 29.8in /  1008.0hPa SSE 6.5mph /  10.5km/h 6.5mph /  10.5km/h 98% 0in /  0.0mm
15:09 35.1 °F /  1.7 °C 35.6 °F /  2.0 °C 29.8in /  1008.0hPa SSE 6.5mph /  10.5km/h 6.5mph /  10.5km/h 98% 0in /  0.0mm
15:15 35.4 °F /  1.9 °C 35.6 °F /  2.0 °C 29.8in /  1008.0hPa SSE 6.5mph /  10.5km/h 6.5mph /  10.5km/h 98% 0in /  0.0mm
15:20 35.6 °F /  2.0 °C 35.6 °F /  2.0 °C 29.8in /  1008.0hPa SSE 6.5mph /  10.5km/h 6.5mph /  10.5km/h 98% 0in /  0.0mm
15:25 35.6 °F /  2.0 °C 35.6 °F /  2.0 °C 29.8in /  1008.0hPa SSE 6.5mph /  10.5km/h 6.5mph /  10.5km/h 98% 0in /  0.0mm
15:30 35.6 °F /  2.0 °C 35.6 °F /  2.0 °C 29.8in /  1009.0hPa SSE 6.5mph /  10.5km/h 6.5mph /  10.5km/h 98% 0in /  0.0mm
15:35 35.6 °F /  2.0 °C 35.6 °F /  2.0 °C 29.8in /  1009.0hPa SSE 6.5mph /  10.5km/h 6.5mph /  10.5km/h 98% 0in /  0.0mm
15:40 35.8 °F /  2.1 °C 35.6 °F /  2.0 °C 29.8in /  1009.0hPa SSE 6.5mph /  10.5km/h 6.5mph /  10.5km/h 98% 0.01in /  0.3mm
15:45 35.8 °F /  2.1 °C 35.6 °F /  2.0 °C 29.8in /  1009.0hPa SSE 6.5mph /  10.5km/h 6.5mph /  10.5km/h 98% 0.01in /  0.3mm
15:50 35.8 °F /  2.1 °C 35.6 °F /  2.0 °C 29.8in /  1009.0hPa SSE 6.5mph /  10.5km/h 6.5mph /  10.5km/h 98% 0.01in /  0.3mm
15:55 36.1 °F /  2.3 °C 37.4 °F /  3.0 °C 29.8in /  1009.0hPa SSE 6.5mph /  10.5km/h 6.5mph /  10.5km/h 98% 0.02in /  0.5mm
16:00 36.1 °F /  2.3 °C 37.4 °F /  3.0 °C 29.8in /  1009.0hPa SSE 6.5mph /  10.5km/h 6.5mph /  10.5km/h 98% 0.02in /  0.5mm
16:05 36 °F /  2.2 °C 35.6 °F /  2.0 °C 29.8in /  1009.0hPa SSE 6.5mph /  10.5km/h 6.5mph /  10.5km/h 98% 0.02in /  0.5mm
16:10 35.8 °F /  2.1 °C 35.6 °F /  2.0 °C 29.8in /  1009.0hPa SSE 6.5mph /  10.5km/h 6.5mph /  10.5km/h 98% 0.02in /  0.5mm
16:15 35.8 °F /  2.1 °C 35.6 °F /  2.0 °C 29.8in /  1009.0hPa SSE 6.5mph /  10.5km/h 6.5mph /  10.5km/h 98% 0.02in /  0.5mm
16:20 36 °F /  2.2 °C 35.6 °F /  2.0 °C 29.8in /  1009.0hPa SSE 6.5mph /  10.5km/h 6.5mph /  10.5km/h 98% 0.02in /  0.5mm
16:25 36 °F /  2.2 °C 35.6 °F /  2.0 °C 29.8in /  1009.0hPa SSE 6.5mph /  10.5km/h 6.5mph /  10.5km/h 98% 0.02in /  0.5mm
16:30 35.8 °F /  2.1 °C 35.6 °F /  2.0 °C 29.8in /  1009.0hPa SSE 6.5mph /  10.5km/h 6.5mph /  10.5km/h 98% 0.02in /  0.5mm
16:35 35.6 °F /  2.0 °C 35.6 °F /  2.0 °C 29.8in /  1009.0hPa SSE 6.5mph /  10.5km/h 6.5mph /  10.5km/h 98% 0.03in /  0.8mm
16:40 35.6 °F /  2.0 °C 35.6 °F /  2.0 °C 29.8in /  1009.0hPa SSE 6.5mph /  10.5km/h 6.5mph /  10.5km/h 98% 0.02in /  0.5mm
16:45 35.4 °F /  1.9 °C 35.6 °F /  2.0 °C 29.8in /  1009.0hPa SSE 6.5mph /  10.5km/h 6.5mph /  10.5km/h 98% 0.02in /  0.5mm
16:50 35.6 °F /  2.0 °C 35.6 °F /  2.0 °C 29.8in /  1009.0hPa SSE 6.5mph /  10.5km/h 6.5mph /  10.5km/h 98% 0.02in /  0.5mm
16:55 35.8 °F /  2.1 °C 35.6 °F /  2.0 °C 29.8in /  1009.0hPa SSE 6.5mph /  10.5km/h 6.5mph /  10.5km/h 98% 0.01in /  0.3mm
17:00 36.1 °F /  2.3 °C 37.4 °F /  3.0 °C 29.8in /  1009.0hPa SSE 6.5mph /  10.5km/h 6.5mph /  10.5km/h 98% 0.01in /  0.3mm
17:06 36.3 °F /  2.4 °C 37.4 °F /  3.0 °C 29.8in /  1009.0hPa SSW 4.3mph /  6.9km/h 4.3mph /  6.9km/h 98% 0.01in /  0.3mm
17:11 36.3 °F /  2.4 °C 37.4 °F /  3.0 °C 29.8in /  1009.0hPa SSW 4.3mph /  6.9km/h 4.3mph /  6.9km/h 98% 0.01in /  0.3mm
17:16 36.3 °F /  2.4 °C 37.4 °F /  3.0 °C 29.8in /  1009.0hPa SSW 4.3mph /  6.9km/h 4.3mph /  6.9km/h 98% 0.01in /  0.3mm
17:21 36.1 °F /  2.3 °C 37.4 °F /  3.0 °C 29.8in /  1009.0hPa SSW 4.3mph /  6.9km/h 4.3mph /  6.9km/h 98% 0.01in /  0.3mm
17:26 36 °F /  2.2 °C 35.6 °F /  2.0 °C 29.8in /  1009.0hPa SSW 4.3mph /  6.9km/h 4.3mph /  6.9km/h 98% 0.01in /  0.3mm
17:31 35.8 °F /  2.1 °C 35.6 °F /  2.0 °C 29.8in /  1009.0hPa SSW 4.3mph /  6.9km/h 4.3mph /  6.9km/h 98% 0in /  0.0mm
17:36 35.6 °F /  2.0 °C 35.6 °F /  2.0 °C 29.8in /  1009.0hPa SSW 4.3mph /  6.9km/h 4.3mph /  6.9km/h 97% 0in /  0.0mm
17:41 35.4 °F /  1.9 °C 35.6 °F /  2.0 °C 29.8in /  1009.0hPa SSW 4.3mph /  6.9km/h 4.3mph /  6.9km/h 98% 0in /  0.0mm
17:46 35.2 °F /  1.8 °C 33.8 °F /  1.0 °C 29.8in /  1009.0hPa SSW 4.3mph /  6.9km/h 4.3mph /  6.9km/h 97% 0in /  0.0mm
17:51 35.1 °F /  1.7 °C 33.8 °F /  1.0 °C 29.8in /  1009.0hPa SSW 4.3mph /  6.9km/h 4.3mph /  6.9km/h 97% 0in /  0.0mm
17:56 35.1 °F /  1.7 °C 33.8 °F /  1.0 °C 29.8in /  1009.0hPa SSW 4.3mph /  6.9km/h 4.3mph /  6.9km/h 97% 0in /  0.0mm
18:01 35.1 °F /  1.7 °C 33.8 °F /  1.0 °C 29.8in /  1010.0hPa SSW 1.1mph /  1.8km/h 1.1mph /  1.8km/h 97% 0in /  0.0mm
18:06 35.1 °F /  1.7 °C 35.6 °F /  2.0 °C 29.8in /  1010.0hPa SSW 1.1mph /  1.8km/h 1.1mph /  1.8km/h 98% 0in /  0.0mm
18:12 35.1 °F /  1.7 °C 35.6 °F /  2.0 °C 29.8in /  1010.0hPa SSW 1.1mph /  1.8km/h 1.1mph /  1.8km/h 98% 0in /  0.0mm
18:17 35.1 °F /  1.7 °C 35.6 °F /  2.0 °C 29.8in /  1010.0hPa SSW 1.1mph /  1.8km/h 1.1mph /  1.8km/h 98% 0in /  0.0mm
18:22 35.1 °F /  1.7 °C 35.6 °F /  2.0 °C 29.8in /  1010.0hPa SSW 1.1mph /  1.8km/h 1.1mph /  1.8km/h 98% 0in /  0.0mm
18:27 35.1 °F /  1.7 °C 35.6 °F /  2.0 °C 29.8in /  1010.0hPa SSW 1.1mph /  1.8km/h 1.1mph /  1.8km/h 98% 0in /  0.0mm
18:32 35.1 °F /  1.7 °C 35.6 °F /  2.0 °C 29.8in /  1010.0hPa SSW 1.1mph /  1.8km/h 1.1mph /  1.8km/h 98% 0in /  0.0mm
18:37 34.9 °F /  1.6 °C 35.6 °F /  2.0 °C 29.8in /  1010.0hPa SSW 1.1mph /  1.8km/h 1.1mph /  1.8km/h 98% 0in /  0.0mm
18:42 34.9 °F /  1.6 °C 35.6 °F /  2.0 °C 29.8in /  1010.0hPa SSW 1.1mph /  1.8km/h 1.1mph /  1.8km/h 98% 0in /  0.0mm
18:47 34.9 °F /  1.6 °C 35.6 °F /  2.0 °C 29.8in /  1010.0hPa SSW 1.1mph /  1.8km/h 1.1mph /  1.8km/h 98% 0in /  0.0mm
18:52 34.7 °F /  1.5 °C 35.6 °F /  2.0 °C 29.8in /  1010.0hPa SSW 1.1mph /  1.8km/h 1.1mph /  1.8km/h 98% 0in /  0.0mm
18:57 34.5 °F /  1.4 °C 33.8 °F /  1.0 °C 29.8in /  1010.0hPa SSW 1.1mph /  1.8km/h 1.1mph /  1.8km/h 98% 0in /  0.0mm
19:02 34.3 °F /  1.3 °C 33.8 °F /  1.0 °C 29.8in /  1010.0hPa Calm     97% 0in /  0.0mm
19:07 34 °F /  1.1 °C 33.8 °F /  1.0 °C 29.8in /  1010.0hPa Calm     97% 0.01in /  0.3mm
19:12 33.8 °F /  1.0 °C 33.8 °F /  1.0 °C 29.8in /  1010.0hPa Calm     97% 0.01in /  0.3mm
19:17 33.6 °F /  0.9 °C 33.8 °F /  1.0 °C 29.9in /  1011.1hPa Calm     97% 0.01in /  0.3mm
19:22 33.6 °F /  0.9 °C 33.8 °F /  1.0 °C 29.9in /  1011.1hPa Calm     97% 0.01in /  0.3mm
19:27 33.8 °F /  1.0 °C 33.8 °F /  1.0 °C 29.9in /  1011.1hPa Calm     97% 0.01in /  0.3mm
19:32 34 °F /  1.1 °C 33.8 °F /  1.0 °C 29.9in /  1011.1hPa Calm     98% 0.01in /  0.3mm
19:37 34.3 °F /  1.3 °C 33.8 °F /  1.0 °C 29.9in /  1011.1hPa Calm     98% 0.01in /  0.3mm
19:42 34.5 °F /  1.4 °C 33.8 °F /  1.0 °C 29.9in /  1011.1hPa Calm     98% 0.01in /  0.3mm
19:47 34.7 °F /  1.5 °C 35.6 °F /  2.0 °C 29.8in /  1010.0hPa West 5.6mph /  9.0km/h 5.6mph /  9.0km/h 98% 0.01in /  0.3mm
19:52 34.9 °F /  1.6 °C 35.6 °F /  2.0 °C 29.8in /  1010.0hPa West 5.6mph /  9.0km/h 5.6mph /  9.0km/h 98% 0.01in /  0.3mm
19:57 35.2 °F /  1.8 °C 35.6 °F /  2.0 °C 29.8in /  1010.0hPa West 5.6mph /  9.0km/h 5.6mph /  9.0km/h 98% 0.01in /  0.3mm
20:02 35.6 °F /  2.0 °C 35.6 °F /  2.0 °C 29.9in /  1011.1hPa West 5.6mph /  9.0km/h 5.6mph /  9.0km/h 98% 0.01in /  0.3mm
20:07 35.6 °F /  2.0 °C 35.6 °F /  2.0 °C 29.9in /  1011.1hPa West 5.6mph /  9.0km/h 5.6mph /  9.0km/h 98% 0.01in /  0.3mm
20:12 35.6 °F /  2.0 °C 35.6 °F /  2.0 °C 29.9in /  1011.1hPa West 5.6mph /  9.0km/h 5.6mph /  9.0km/h 98% 0.01in /  0.3mm
20:18 35.8 °F /  2.1 °C 35.6 °F /  2.0 °C 29.9in /  1011.1hPa West 5.6mph /  9.0km/h 5.6mph /  9.0km/h 98% 0.01in /  0.3mm
20:23 35.6 °F /  2.0 °C 35.6 °F /  2.0 °C 29.9in /  1011.1hPa West 5.6mph /  9.0km/h 5.6mph /  9.0km/h 98% 0.01in /  0.3mm
20:28 35.8 °F /  2.1 °C 35.6 °F /  2.0 °C 29.9in /  1011.1hPa West 5.6mph /  9.0km/h 5.6mph /  9.0km/h 98% 0.01in /  0.3mm
20:33 35.8 °F /  2.1 °C 35.6 °F /  2.0 °C 29.9in /  1011.1hPa West 5.6mph /  9.0km/h 5.6mph /  9.0km/h 98% 0.02in /  0.5mm
20:38 36 °F /  2.2 °C 35.6 °F /  2.0 °C 29.9in /  1011.1hPa West 5.6mph /  9.0km/h 5.6mph /  9.0km/h 98% 0.02in /  0.5mm
20:43 36 °F /  2.2 °C 35.6 °F /  2.0 °C 29.9in /  1011.1hPa West 5.6mph /  9.0km/h 5.6mph /  9.0km/h 98% 0.03in /  0.8mm
20:48 36 °F /  2.2 °C 35.6 °F /  2.0 °C 29.9in /  1011.1hPa West 5.6mph /  9.0km/h 5.6mph /  9.0km/h 98% 0.03in /  0.8mm
20:53 36 °F /  2.2 °C 35.6 °F /  2.0 °C 29.9in /  1011.1hPa West 5.6mph /  9.0km/h 5.6mph /  9.0km/h 98% 0.05in /  1.3mm
20:58 36 °F /  2.2 °C 35.6 °F /  2.0 °C 29.9in /  1011.1hPa West 5.6mph /  9.0km/h 5.6mph /  9.0km/h 98% 0.05in /  1.3mm
21:03 36 °F /  2.2 °C 35.6 °F /  2.0 °C 29.9in /  1012.1hPa West 5.6mph /  9.0km/h 5.6mph /  9.0km/h 98% 0.05in /  1.3mm
21:08 35.8 °F /  2.1 °C 35.6 °F /  2.0 °C 29.9in /  1012.1hPa West 5.6mph /  9.0km/h 5.6mph /  9.0km/h 98% 0.03in /  0.8mm
21:13 35.6 °F /  2.0 °C 35.6 °F /  2.0 °C 29.9in /  1012.1hPa West 5.6mph /  9.0km/h 5.6mph /  9.0km/h 98% 0.05in /  1.3mm
21:18 35.6 °F /  2.0 °C 35.6 °F /  2.0 °C 29.9in /  1012.1hPa West 5.6mph /  9.0km/h 5.6mph /  9.0km/h 98% 0.05in /  1.3mm
21:23 35.6 °F /  2.0 °C 35.6 °F /  2.0 °C 29.9in /  1012.1hPa West 5.6mph /  9.0km/h 5.6mph /  9.0km/h 98% 0.05in /  1.3mm
21:28 35.6 °F /  2.0 °C 35.6 °F /  2.0 °C 29.9in /  1012.1hPa West 5.6mph /  9.0km/h 5.6mph /  9.0km/h 98% 0.05in /  1.3mm
21:33 35.6 °F /  2.0 °C 35.6 °F /  2.0 °C 29.9in /  1012.1hPa West 5.6mph /  9.0km/h 5.6mph /  9.0km/h 98% 0.04in /  1.0mm
21:38 35.4 °F /  1.9 °C 35.6 °F /  2.0 °C 29.9in /  1012.1hPa Calm     98% 0.04in /  1.0mm
21:43 35.4 °F /  1.9 °C 35.6 °F /  2.0 °C 29.9in /  1012.1hPa Calm     98% 0.03in /  0.8mm
21:48 35.4 °F /  1.9 °C 35.6 °F /  2.0 °C 29.9in /  1012.1hPa Calm     98% 0.01in /  0.3mm
21:54 35.4 °F /  1.9 °C 35.6 °F /  2.0 °C 29.9in /  1012.1hPa Calm     98% 0.01in /  0.3mm
21:59 35.4 °F /  1.9 °C 35.6 °F /  2.0 °C 29.9in /  1013.1hPa Calm     98% 0.01in /  0.3mm
22:04 35.2 °F /  1.8 °C 35.6 °F /  2.0 °C 29.9in /  1013.1hPa Calm     98% 0.01in /  0.3mm
22:09 35.2 °F /  1.8 °C 35.6 °F /  2.0 °C 29.9in /  1013.1hPa Calm     98% 0.01in /  0.3mm
22:14 35.4 °F /  1.9 °C 35.6 °F /  2.0 °C 29.9in /  1013.1hPa West 1.6mph /  2.6km/h 1.6mph /  2.6km/h 98% 0.01in /  0.3mm
22:19 35.8 °F /  2.1 °C 35.6 °F /  2.0 °C 29.9in /  1013.1hPa West 1.6mph /  2.6km/h 1.6mph /  2.6km/h 98% 0.01in /  0.3mm
22:24 36.1 °F /  2.3 °C 37.4 °F /  3.0 °C 29.9in /  1013.1hPa West 1.6mph /  2.6km/h 1.6mph /  2.6km/h 98% 0.01in /  0.3mm
22:29 36.1 °F /  2.3 °C 37.4 °F /  3.0 °C 29.9in /  1013.1hPa West 1.6mph /  2.6km/h 1.6mph /  2.6km/h 98% 0.01in /  0.3mm
22:34 36.3 °F /  2.4 °C 37.4 °F /  3.0 °C 29.9in /  1013.1hPa West 1.6mph /  2.6km/h 1.6mph /  2.6km/h 98% 0.01in /  0.3mm
22:39 36.3 °F /  2.4 °C 37.4 °F /  3.0 °C 29.9in /  1013.1hPa West 1.6mph /  2.6km/h 1.6mph /  2.6km/h 98% 0.03in /  0.8mm
22:44 36.5 °F /  2.5 °C 37.4 °F /  3.0 °C 29.9in /  1013.1hPa West 4.3mph /  6.9km/h 4.3mph /  6.9km/h 98% 0.06in /  1.5mm
22:49 36.5 °F /  2.5 °C 37.4 °F /  3.0 °C 29.9in /  1013.1hPa West 4.3mph /  6.9km/h 4.3mph /  6.9km/h 98% 0.06in /  1.5mm
22:54 36.5 °F /  2.5 °C 37.4 °F /  3.0 °C 29.9in /  1013.1hPa West 4.3mph /  6.9km/h 4.3mph /  6.9km/h 98% 0.06in /  1.5mm
22:59 36.7 °F /  2.6 °C 37.4 °F /  3.0 °C 29.9in /  1012.1hPa West 4.3mph /  6.9km/h 4.3mph /  6.9km/h 98% 0.06in /  1.5mm
23:04 36.7 °F /  2.6 °C 37.4 °F /  3.0 °C 29.9in /  1012.1hPa West 4.3mph /  6.9km/h 4.3mph /  6.9km/h 98% 0.06in /  1.5mm
23:09 36.9 °F /  2.7 °C 37.4 °F /  3.0 °C 29.9in /  1012.1hPa West 4.3mph /  6.9km/h 4.3mph /  6.9km/h 98% 0.06in /  1.5mm
23:14 37 °F /  2.8 °C 37.4 °F /  3.0 °C 29.9in /  1013.1hPa West 4.3mph /  6.9km/h 4.3mph /  6.9km/h 98% 0.06in /  1.5mm
23:19 37 °F /  2.8 °C 37.4 °F /  3.0 °C 29.9in /  1013.1hPa West 4.3mph /  6.9km/h 4.3mph /  6.9km/h 98% 0.06in /  1.5mm
23:24 36.9 °F /  2.7 °C 37.4 °F /  3.0 °C 29.9in /  1013.1hPa West 4.3mph /  6.9km/h 4.3mph /  6.9km/h 98% 0.06in /  1.5mm
23:29 36.9 °F /  2.7 °C 37.4 °F /  3.0 °C 29.9in /  1013.1hPa West 4.3mph /  6.9km/h 4.3mph /  6.9km/h 98% 0.06in /  1.5mm
23:34 36.9 °F /  2.7 °C 37.4 °F /  3.0 °C 29.9in /  1013.1hPa West 4.3mph /  6.9km/h 4.3mph /  6.9km/h 98% 0.05in /  1.3mm
23:39 36.9 °F /  2.7 °C 37.4 °F /  3.0 °C 29.9in /  1013.1hPa West 4.3mph /  6.9km/h 4.3mph /  6.9km/h 98% 0.03in /  0.8mm
23:44 36.7 °F /  2.6 °C 37.4 °F /  3.0 °C 29.9in /  1013.1hPa West 4.3mph /  6.9km/h 4.3mph /  6.9km/h 98% 0.03in /  0.8mm
23:49 36.7 °F /  2.6 °C 37.4 °F /  3.0 °C 29.9in /  1013.1hPa West 4.3mph /  6.9km/h 4.3mph /  6.9km/h 98% 0.03in /  0.8mm
23:54 36.7 °F /  2.6 °C 37.4 °F /  3.0 °C 29.9in /  1013.1hPa West 4.3mph /  6.9km/h 4.3mph /  6.9km/h 98% 0.04in /  1.0mm
23:59 36.5 °F /  2.5 °C 37.4 °F /  3.0 °C 29.9in /  1014.1hPa West 4.3mph /  6.9km/h 4.3mph /  6.9km/h 98% 0.04in /  1.0mm
Données Historique de Météo Turbie

Mise a jour : 22/05/2018 21:40:12
Généré par Cumulus 1.9.4 (1099)